createdAt,value
2023-05-06T00:00:36.238Z,100.00
2023-05-06T00:01:36.253Z,100.00
2023-05-06T00:02:36.303Z,100.00
2023-05-06T00:03:36.309Z,100.00
2023-05-06T00:04:36.335Z,100.00
2023-05-06T00:05:36.254Z,100.00
2023-05-06T00:06:36.246Z,100.00
2023-05-06T00:07:36.257Z,100.00
2023-05-06T00:08:36.257Z,100.00
2023-05-06T00:09:36.274Z,100.00
2023-05-06T00:10:36.261Z,100.00
2023-05-06T00:11:36.219Z,100.00
2023-05-06T00:12:36.291Z,100.00
2023-05-06T00:13:36.233Z,100.00
2023-05-06T00:14:36.257Z,100.00
2023-05-06T00:15:36.278Z,100.00
2023-05-06T00:16:36.291Z,100.00
2023-05-06T00:17:36.337Z,100.00
2023-05-06T00:18:36.264Z,100.00
2023-05-06T00:19:36.259Z,100.00
2023-05-06T00:20:36.257Z,100.00
2023-05-06T00:21:36.214Z,100.00
2023-05-06T00:22:36.259Z,100.00
2023-05-06T00:23:36.225Z,100.00
2023-05-06T00:24:36.263Z,100.00
2023-05-06T00:25:36.234Z,100.00
2023-05-06T00:26:36.282Z,100.00
2023-05-06T00:27:36.260Z,100.00
2023-05-06T00:28:36.255Z,100.00
2023-05-06T00:29:36.317Z,100.00
2023-05-06T00:30:36.359Z,100.00
2023-05-06T00:31:36.402Z,100.00
2023-05-06T00:32:36.441Z,100.00
2023-05-06T00:33:36.360Z,100.00
2023-05-06T00:34:36.370Z,100.00
2023-05-06T00:35:36.389Z,100.00
2023-05-06T00:36:36.435Z,100.00
2023-05-06T00:37:36.394Z,100.00
2023-05-06T00:38:36.385Z,100.00
2023-05-06T00:39:36.418Z,100.00
2023-05-06T00:40:36.450Z,100.00
2023-05-06T00:41:36.477Z,100.00
2023-05-06T00:42:36.477Z,100.00
2023-05-06T00:43:36.490Z,100.00
2023-05-06T00:44:36.480Z,100.00
2023-05-06T00:45:36.518Z,100.00
2023-05-06T00:46:36.524Z,100.00
2023-05-06T00:47:36.561Z,100.00
2023-05-06T00:48:36.533Z,100.00
2023-05-06T00:49:36.543Z,100.00
2023-05-06T00:50:36.567Z,100.00
2023-05-06T00:51:36.579Z,100.00
2023-05-06T00:52:36.570Z,100.00
2023-05-06T00:53:36.605Z,100.00
2023-05-06T00:54:36.622Z,100.00
2023-05-06T00:55:36.640Z,100.00
2023-05-06T00:56:36.651Z,100.00
2023-05-06T00:57:36.692Z,100.00
2023-05-06T00:58:36.649Z,100.00
2023-05-06T00:59:36.638Z,100.00
2023-05-06T01:00:36.678Z,100.00
2023-05-06T01:01:36.717Z,100.00
2023-05-06T01:02:46.339Z,100.00
2023-05-06T01:03:36.774Z,100.00
2023-05-06T01:04:36.730Z,100.00
2023-05-06T01:05:36.710Z,100.00
2023-05-06T01:06:36.725Z,100.00
2023-05-06T01:07:36.725Z,100.00
2023-05-06T01:08:36.694Z,100.00
2023-05-06T01:09:36.690Z,100.00
2023-05-06T01:10:36.923Z,100.00
2023-05-06T01:11:36.734Z,100.00
2023-05-06T01:12:36.716Z,100.00
2023-05-06T01:13:36.729Z,100.00
2023-05-06T01:14:36.730Z,100.00
2023-05-06T01:15:36.730Z,100.00
2023-05-06T01:16:36.753Z,100.00
2023-05-06T01:17:36.742Z,100.00
2023-05-06T01:18:36.733Z,100.00
2023-05-06T01:19:36.741Z,100.00
2023-05-06T01:20:36.765Z,100.00
2023-05-06T01:21:36.731Z,100.00
2023-05-06T01:22:36.748Z,100.00
2023-05-06T01:23:36.745Z,100.00
2023-05-06T01:24:36.767Z,100.00
2023-05-06T01:25:36.706Z,100.00
2023-05-06T01:26:36.742Z,100.00
2023-05-06T01:27:36.729Z,100.00
2023-05-06T01:28:36.747Z,100.00
2023-05-06T01:29:36.752Z,100.00
2023-05-06T01:30:37.008Z,100.00
2023-05-06T01:31:36.775Z,100.00
2023-05-06T01:32:36.732Z,100.00
2023-05-06T01:33:36.765Z,100.00
2023-05-06T01:34:36.748Z,100.00
2023-05-06T01:35:36.753Z,100.00
2023-05-06T01:36:36.735Z,100.00
2023-05-06T01:37:36.737Z,100.00
2023-05-06T01:38:36.767Z,100.00
2023-05-06T01:39:36.790Z,100.00
2023-05-06T01:40:37.023Z,100.00
2023-05-06T01:41:36.728Z,100.00
2023-05-06T01:42:36.759Z,100.00
2023-05-06T01:43:36.782Z,100.00
2023-05-06T01:44:36.834Z,100.00
2023-05-06T01:45:36.758Z,100.00
2023-05-06T01:46:36.852Z,100.00
2023-05-06T01:47:36.803Z,100.00
2023-05-06T01:48:36.782Z,100.00
2023-05-06T01:49:36.784Z,100.00
2023-05-06T01:50:36.981Z,100.00
2023-05-06T01:51:36.778Z,100.00
2023-05-06T01:52:36.755Z,100.00
2023-05-06T01:53:36.753Z,100.00
2023-05-06T01:54:36.757Z,100.00
2023-05-06T01:55:36.800Z,100.00
2023-05-06T01:56:36.803Z,100.00
2023-05-06T01:57:36.764Z,100.00
2023-05-06T01:58:36.854Z,100.00
2023-05-06T01:59:36.731Z,100.00
2023-05-06T02:00:36.929Z,100.00
2023-05-06T02:01:36.816Z,100.00
2023-05-06T02:02:36.815Z,100.00
2023-05-06T02:03:36.841Z,100.00
2023-05-06T02:04:36.754Z,100.00
2023-05-06T02:05:36.811Z,100.00
2023-05-06T02:06:36.779Z,100.00
2023-05-06T02:07:36.776Z,100.00
2023-05-06T02:08:36.788Z,100.00
2023-05-06T02:09:36.789Z,100.00
2023-05-06T02:10:36.915Z,100.00
2023-05-06T02:11:36.803Z,100.00
2023-05-06T02:12:36.857Z,100.00
2023-05-06T02:13:36.768Z,100.00
2023-05-06T02:14:36.784Z,100.00
2023-05-06T02:15:36.800Z,100.00
2023-05-06T02:16:36.823Z,100.00
2023-05-06T02:17:36.809Z,100.00
2023-05-06T02:18:36.753Z,100.00
2023-05-06T02:19:36.785Z,100.00
2023-05-06T02:20:37.114Z,100.00
2023-05-06T02:21:36.785Z,100.00
2023-05-06T02:22:36.804Z,100.00
2023-05-06T02:23:36.794Z,100.00
2023-05-06T02:24:36.802Z,100.00
2023-05-06T02:25:36.769Z,100.00
2023-05-06T02:26:36.797Z,100.00
2023-05-06T02:27:36.801Z,100.00
2023-05-06T02:28:36.796Z,100.00
2023-05-06T02:29:36.814Z,100.00
2023-05-06T02:30:36.982Z,100.00
2023-05-06T02:31:36.837Z,100.00
2023-05-06T02:32:36.861Z,100.00
2023-05-06T02:33:36.817Z,100.00
2023-05-06T02:34:36.790Z,100.00
2023-05-06T02:35:36.799Z,100.00
2023-05-06T02:36:36.882Z,100.00
2023-05-06T02:37:36.843Z,100.00
2023-05-06T02:38:36.793Z,100.00
2023-05-06T02:39:36.797Z,100.00
2023-05-06T02:40:36.920Z,100.00
2023-05-06T02:41:36.858Z,100.00
2023-05-06T02:42:36.899Z,100.00
2023-05-06T02:43:36.837Z,100.00
2023-05-06T02:44:36.788Z,100.00
2023-05-06T02:45:36.898Z,100.00
2023-05-06T02:46:36.844Z,100.00
2023-05-06T02:47:36.898Z,100.00
2023-05-06T02:48:36.862Z,100.00
2023-05-06T02:49:36.905Z,100.00
2023-05-06T02:50:37.010Z,100.00
2023-05-06T02:51:36.913Z,100.00
2023-05-06T02:52:36.927Z,100.00
2023-05-06T02:53:36.958Z,100.00
2023-05-06T02:54:36.941Z,100.00
2023-05-06T02:55:36.969Z,100.00
2023-05-06T02:56:37.001Z,100.00
2023-05-06T02:57:36.996Z,100.00
2023-05-06T02:58:36.999Z,100.00
2023-05-06T02:59:36.980Z,100.00
2023-05-06T03:00:37.007Z,100.00
2023-05-06T03:01:37.119Z,100.00
2023-05-06T03:02:37.068Z,100.00
2023-05-06T03:03:37.081Z,100.00
2023-05-06T03:04:37.115Z,100.00
2023-05-06T03:05:37.104Z,100.00
2023-05-06T03:06:37.084Z,100.00
2023-05-06T03:07:37.085Z,100.00
2023-05-06T03:08:37.128Z,100.00
2023-05-06T03:09:37.128Z,100.00
2023-05-06T03:10:37.124Z,100.00
2023-05-06T03:11:37.139Z,100.00
2023-05-06T03:12:37.211Z,100.00
2023-05-06T03:13:37.185Z,100.00
2023-05-06T03:14:37.155Z,100.00
2023-05-06T03:15:37.200Z,100.00
2023-05-06T03:16:37.225Z,100.00
2023-05-06T03:17:37.227Z,100.00
2023-05-06T03:18:37.223Z,100.00
2023-05-06T03:19:37.265Z,100.00
2023-05-06T03:20:37.287Z,100.00
2023-05-06T03:21:37.277Z,100.00
2023-05-06T03:22:37.296Z,100.00
2023-05-06T03:23:37.279Z,100.00
2023-05-06T03:24:37.316Z,100.00
2023-05-06T03:25:37.323Z,100.00
2023-05-06T03:26:37.325Z,100.00
2023-05-06T03:27:37.315Z,100.00
2023-05-06T03:28:37.349Z,100.00
2023-05-06T03:29:37.381Z,100.00
2023-05-06T03:30:37.374Z,100.00
2023-05-06T03:31:37.409Z,100.00
2023-05-06T03:32:37.453Z,100.00
2023-05-06T03:33:37.430Z,100.00
2023-05-06T03:34:37.433Z,100.00
2023-05-06T03:35:37.435Z,100.00
2023-05-06T03:36:37.456Z,100.00
2023-05-06T03:37:37.424Z,100.00
2023-05-06T03:38:37.457Z,100.00
2023-05-06T03:39:37.512Z,100.00
2023-05-06T03:40:37.506Z,100.00
2023-05-06T03:41:37.524Z,100.00
2023-05-06T03:42:37.605Z,100.00
2023-05-06T03:43:37.600Z,100.00
2023-05-06T03:44:37.637Z,100.00
2023-05-06T03:45:37.658Z,100.00
2023-05-06T03:46:37.668Z,100.00
2023-05-06T03:47:37.673Z,100.00
2023-05-06T03:48:37.661Z,100.00
2023-05-06T03:49:37.682Z,100.00
2023-05-06T03:50:37.705Z,100.00
2023-05-06T03:51:37.747Z,100.00
2023-05-06T03:52:37.739Z,100.00
2023-05-06T03:53:37.712Z,100.00
2023-05-06T03:54:37.742Z,100.00
2023-05-06T03:55:37.799Z,100.00
2023-05-06T03:56:37.784Z,100.00
2023-05-06T03:57:37.762Z,100.00
2023-05-06T03:58:37.754Z,100.00
2023-05-06T03:59:37.743Z,100.00
2023-05-06T04:00:38.028Z,100.00
2023-05-06T04:01:38.067Z,100.00
2023-05-06T04:02:38.112Z,100.00
2023-05-06T04:03:38.112Z,100.00
2023-05-06T04:04:38.018Z,100.00
2023-05-06T04:05:38.021Z,100.00
2023-05-06T04:06:38.011Z,100.00
2023-05-06T04:07:38.087Z,100.00
2023-05-06T04:08:38.039Z,100.00
2023-05-06T04:09:38.042Z,100.00
2023-05-06T04:10:38.031Z,100.00
2023-05-06T04:11:38.028Z,100.00
2023-05-06T04:12:38.074Z,100.00
2023-05-06T04:13:38.081Z,100.00
2023-05-06T04:14:38.043Z,100.00
2023-05-06T04:15:38.026Z,100.00
2023-05-06T04:16:38.026Z,100.00
2023-05-06T04:17:38.090Z,100.00
2023-05-06T04:18:38.017Z,100.00
2023-05-06T04:19:38.026Z,100.00
2023-05-06T04:20:38.046Z,100.00
2023-05-06T04:21:38.019Z,100.00
2023-05-06T04:22:38.048Z,100.00
2023-05-06T04:23:38.015Z,100.00
2023-05-06T04:24:38.041Z,100.00
2023-05-06T04:25:38.070Z,100.00
2023-05-06T04:26:38.073Z,100.00
2023-05-06T04:27:38.070Z,100.00
2023-05-06T04:28:38.042Z,100.00
2023-05-06T04:29:38.048Z,100.00
2023-05-06T04:30:38.144Z,100.00
2023-05-06T04:31:38.221Z,100.00
2023-05-06T04:32:38.177Z,100.00
2023-05-06T04:33:38.123Z,100.00
2023-05-06T04:34:38.134Z,100.00
2023-05-06T04:35:38.167Z,100.00
2023-05-06T04:36:40.071Z,100.00
2023-05-06T04:37:38.208Z,100.00
2023-05-06T04:38:38.212Z,100.00
2023-05-06T04:39:38.188Z,100.00
2023-05-06T04:40:38.200Z,100.00
2023-05-06T04:41:38.214Z,100.00
2023-05-06T04:42:38.255Z,100.00
2023-05-06T04:43:38.246Z,100.00
2023-05-06T04:44:38.254Z,100.00
2023-05-06T04:45:38.304Z,100.00
2023-05-06T04:46:38.429Z,100.00
2023-05-06T04:47:38.463Z,100.00
2023-05-06T04:48:38.386Z,100.00
2023-05-06T04:49:38.378Z,100.00
2023-05-06T04:50:38.382Z,100.00
2023-05-06T04:51:38.410Z,100.00
2023-05-06T04:52:38.404Z,100.00
2023-05-06T04:53:38.413Z,100.00
2023-05-06T04:54:38.405Z,100.00
2023-05-06T04:55:38.448Z,100.00
2023-05-06T04:56:38.490Z,100.00
2023-05-06T04:57:38.424Z,100.00
2023-05-06T04:58:38.438Z,100.00
2023-05-06T04:59:38.455Z,100.00
2023-05-06T05:00:38.454Z,100.00
2023-05-06T05:01:38.584Z,100.00
2023-05-06T05:02:38.527Z,100.00
2023-05-06T05:03:38.502Z,100.00
2023-05-06T05:04:38.467Z,100.00
2023-05-06T05:05:38.537Z,100.00
2023-05-06T05:06:38.555Z,100.00
2023-05-06T05:07:38.547Z,100.00
2023-05-06T05:08:38.550Z,100.00
2023-05-06T05:09:38.561Z,100.00
2023-05-06T05:10:38.594Z,100.00
2023-05-06T05:11:38.591Z,100.00
2023-05-06T05:12:38.641Z,100.00
2023-05-06T05:13:38.590Z,100.00
2023-05-06T05:14:38.628Z,100.00
2023-05-06T05:15:38.659Z,100.00
2023-05-06T05:16:38.699Z,100.00
2023-05-06T05:17:38.694Z,100.00
2023-05-06T05:18:38.656Z,100.00
2023-05-06T05:19:38.700Z,100.00
2023-05-06T05:20:38.720Z,100.00
2023-05-06T05:21:38.733Z,100.00
2023-05-06T05:22:38.730Z,100.00
2023-05-06T05:23:38.830Z,100.00
2023-05-06T05:24:38.824Z,100.00
2023-05-06T05:25:38.845Z,100.00
2023-05-06T05:26:38.811Z,100.00
2023-05-06T05:27:38.824Z,100.00
2023-05-06T05:28:38.837Z,100.00
2023-05-06T05:29:38.859Z,100.00
2023-05-06T05:30:38.836Z,100.00
2023-05-06T05:31:38.878Z,100.00
2023-05-06T05:32:38.871Z,100.00
2023-05-06T05:33:38.875Z,100.00
2023-05-06T05:34:38.867Z,100.00
2023-05-06T05:35:38.875Z,100.00
2023-05-06T05:36:38.900Z,100.00
2023-05-06T05:37:38.886Z,100.00
2023-05-06T05:38:38.914Z,100.00
2023-05-06T05:39:38.920Z,100.00
2023-05-06T05:40:38.910Z,100.00
2023-05-06T05:41:38.988Z,100.00
2023-05-06T05:42:39.035Z,100.00
2023-05-06T05:43:39.051Z,100.00
2023-05-06T05:44:39.056Z,100.00
2023-05-06T05:45:39.063Z,100.00
2023-05-06T05:46:39.130Z,100.00
2023-05-06T05:47:39.129Z,100.00
2023-05-06T05:48:39.114Z,100.00
2023-05-06T05:49:39.133Z,100.00
2023-05-06T05:50:39.112Z,100.00
2023-05-06T05:51:39.106Z,100.00
2023-05-06T05:52:39.179Z,100.00
2023-05-06T05:53:39.142Z,100.00
2023-05-06T05:54:39.133Z,100.00
2023-05-06T05:55:39.135Z,100.00
2023-05-06T05:56:39.146Z,100.00
2023-05-06T05:57:39.210Z,100.00
2023-05-06T05:58:39.146Z,100.00
2023-05-06T05:59:39.138Z,100.00
2023-05-06T06:00:39.220Z,100.00
2023-05-06T06:01:39.324Z,100.00
2023-05-06T06:02:39.307Z,100.00
2023-05-06T06:03:39.357Z,100.00
2023-05-06T06:04:39.382Z,100.00
2023-05-06T06:05:39.237Z,100.00
2023-05-06T06:06:39.272Z,100.00
2023-05-06T06:07:39.290Z,100.00
2023-05-06T06:08:39.266Z,100.00
2023-05-06T06:09:39.287Z,100.00
2023-05-06T06:10:39.323Z,100.00
2023-05-06T06:11:39.310Z,100.00
2023-05-06T06:12:39.479Z,100.00
2023-05-06T06:13:39.405Z,100.00
2023-05-06T06:14:39.417Z,100.00
2023-05-06T06:15:39.414Z,100.00
2023-05-06T06:16:39.459Z,100.00
2023-05-06T06:17:39.499Z,100.00
2023-05-06T06:18:39.481Z,100.00
2023-05-06T06:19:39.496Z,100.00
2023-05-06T06:20:39.506Z,100.00
2023-05-06T06:21:39.473Z,100.00
2023-05-06T06:22:39.496Z,100.00
2023-05-06T06:23:39.532Z,100.00
2023-05-06T06:24:39.497Z,100.00
2023-05-06T06:25:39.496Z,100.00
2023-05-06T06:26:39.490Z,100.00
2023-05-06T06:27:39.511Z,100.00
2023-05-06T06:28:39.571Z,100.00
2023-05-06T06:29:39.564Z,100.00
2023-05-06T06:30:39.512Z,100.00
2023-05-06T06:31:40.626Z,100.00
2023-05-06T06:32:39.944Z,100.00
2023-05-06T06:33:39.588Z,100.00
2023-05-06T06:34:39.583Z,100.00
2023-05-06T06:35:39.593Z,100.00
2023-05-06T06:36:39.605Z,100.00
2023-05-06T06:37:39.654Z,100.00
2023-05-06T06:38:39.614Z,100.00
2023-05-06T06:39:39.678Z,100.00
2023-05-06T06:40:39.671Z,100.00
2023-05-06T06:41:39.673Z,100.00
2023-05-06T06:42:39.711Z,100.00
2023-05-06T06:43:39.737Z,100.00
2023-05-06T06:44:39.694Z,100.00
2023-05-06T06:45:39.796Z,100.00
2023-05-06T06:46:39.713Z,100.00
2023-05-06T06:47:39.804Z,100.00
2023-05-06T06:48:39.768Z,100.00
2023-05-06T06:49:39.765Z,100.00
2023-05-06T06:50:39.799Z,100.00
2023-05-06T06:51:39.822Z,100.00
2023-05-06T06:52:39.800Z,100.00
2023-05-06T06:53:39.831Z,100.00
2023-05-06T06:54:39.827Z,100.00
2023-05-06T06:55:39.872Z,100.00
2023-05-06T06:56:39.857Z,100.00
2023-05-06T06:57:39.861Z,100.00
2023-05-06T06:58:39.879Z,100.00
2023-05-06T06:59:39.884Z,100.00
2023-05-06T07:00:39.954Z,100.00
2023-05-06T07:01:39.966Z,100.00
2023-05-06T07:02:39.982Z,100.00
2023-05-06T07:03:39.969Z,100.00
2023-05-06T07:04:40.049Z,100.00
2023-05-06T07:05:39.957Z,100.00
2023-05-06T07:06:39.992Z,100.00
2023-05-06T07:07:39.982Z,100.00
2023-05-06T07:08:40.005Z,100.00
2023-05-06T07:09:40.316Z,100.00
2023-05-06T07:10:40.074Z,100.00
2023-05-06T07:11:40.070Z,100.00
2023-05-06T07:12:40.097Z,100.00
2023-05-06T07:13:40.080Z,100.00
2023-05-06T07:14:40.077Z,100.00
2023-05-06T07:15:40.081Z,100.00
2023-05-06T07:16:40.198Z,100.00
2023-05-06T07:17:40.118Z,100.00
2023-05-06T07:18:40.130Z,100.00
2023-05-06T07:19:40.135Z,100.00
2023-05-06T07:20:40.167Z,100.00
2023-05-06T07:21:40.234Z,100.00
2023-05-06T07:22:40.218Z,100.00
2023-05-06T07:23:40.156Z,100.00
2023-05-06T07:24:40.191Z,100.00
2023-05-06T07:25:40.188Z,100.00
2023-05-06T07:26:40.258Z,100.00
2023-05-06T07:27:40.242Z,100.00
2023-05-06T07:28:40.256Z,100.00
2023-05-06T07:29:40.264Z,100.00
2023-05-06T07:30:40.258Z,100.00
2023-05-06T07:31:40.346Z,100.00
2023-05-06T07:32:40.303Z,100.00
2023-05-06T07:33:40.317Z,100.00
2023-05-06T07:34:40.300Z,100.00
2023-05-06T07:35:40.341Z,100.00
2023-05-06T07:36:40.415Z,100.00
2023-05-06T07:37:40.364Z,100.00
2023-05-06T07:38:40.355Z,100.00
2023-05-06T07:39:40.385Z,100.00
2023-05-06T07:40:40.379Z,100.00
2023-05-06T07:41:40.418Z,100.00
2023-05-06T07:42:42.818Z,100.00
2023-05-06T07:43:40.416Z,100.00
2023-05-06T07:44:40.465Z,100.00
2023-05-06T07:45:40.424Z,100.00
2023-05-06T07:46:40.536Z,100.00
2023-05-06T07:47:40.547Z,100.00
2023-05-06T07:48:40.406Z,100.00
2023-05-06T07:49:40.435Z,100.00
2023-05-06T07:50:40.427Z,100.00
2023-05-06T07:51:40.442Z,100.00
2023-05-06T07:52:40.423Z,100.00
2023-05-06T07:53:40.399Z,100.00
2023-05-06T07:54:40.444Z,100.00
2023-05-06T07:55:40.445Z,100.00
2023-05-06T07:56:40.467Z,100.00
2023-05-06T07:57:40.432Z,100.00
2023-05-06T07:58:40.434Z,100.00
2023-05-06T07:59:40.438Z,100.00
2023-05-06T08:00:40.520Z,100.00
2023-05-06T08:01:40.499Z,100.00
2023-05-06T08:02:40.525Z,100.00
2023-05-06T08:03:40.643Z,100.00
2023-05-06T08:04:40.480Z,100.00
2023-05-06T08:05:40.437Z,100.00
2023-05-06T08:06:40.476Z,100.00
2023-05-06T08:07:40.454Z,100.00
2023-05-06T08:08:40.464Z,100.00
2023-05-06T08:09:40.469Z,100.00
2023-05-06T08:10:40.460Z,100.00
2023-05-06T08:12:14.738Z,100.00
2023-05-06T08:13:14.757Z,100.00
2023-05-06T08:14:14.735Z,100.00
2023-05-06T08:15:14.696Z,100.00
2023-05-06T08:16:14.789Z,100.00
2023-05-06T08:17:14.756Z,100.00
2023-05-06T08:18:22.272Z,100.00
2023-05-06T08:19:14.741Z,100.00
2023-05-06T08:20:14.733Z,100.00
2023-05-06T08:21:14.741Z,100.00
2023-05-06T08:22:14.783Z,100.00
2023-05-06T08:23:14.767Z,100.00
2023-05-06T08:24:14.742Z,100.00
2023-05-06T08:25:14.755Z,100.00
2023-05-06T08:26:14.760Z,100.00
2023-05-06T08:27:14.765Z,100.00
2023-05-06T08:28:14.788Z,100.00
2023-05-06T08:29:14.785Z,100.00
2023-05-06T08:30:14.761Z,100.00
2023-05-06T08:31:14.825Z,100.00
2023-05-06T08:32:14.750Z,100.00
2023-05-06T08:33:14.780Z,100.00
2023-05-06T08:34:14.797Z,100.00
2023-05-06T08:35:14.760Z,100.00
2023-05-06T08:36:14.772Z,100.00
2023-05-06T08:37:14.778Z,100.00
2023-05-06T08:38:14.798Z,100.00
2023-05-06T08:39:14.778Z,100.00
2023-05-06T08:40:14.773Z,100.00
2023-05-06T08:41:14.762Z,100.00
2023-05-06T08:42:14.792Z,100.00
2023-05-06T08:43:14.821Z,100.00
2023-05-06T08:44:14.814Z,100.00
2023-05-06T08:45:14.782Z,100.00
2023-05-06T08:46:14.875Z,100.00
2023-05-06T08:47:14.810Z,100.00
2023-05-06T08:48:14.910Z,100.00
2023-05-06T08:49:14.975Z,100.00
2023-05-06T08:50:14.947Z,100.00
2023-05-06T08:51:14.946Z,100.00
2023-05-06T08:52:14.960Z,100.00
2023-05-06T08:53:14.993Z,100.00
2023-05-06T08:54:15.003Z,100.00
2023-05-06T08:55:15.005Z,100.00
2023-05-06T08:56:15.039Z,100.00
2023-05-06T08:57:17.995Z,5.29
2023-05-06T08:58:18.020Z,100.00
2023-05-06T08:59:18.029Z,100.00
2023-05-06T09:00:18.006Z,100.00
2023-05-06T09:01:18.028Z,100.00
2023-05-06T09:02:18.054Z,100.00
2023-05-06T09:03:18.119Z,100.00
2023-05-06T09:04:18.030Z,100.00
2023-05-06T09:05:18.025Z,100.00
2023-05-06T09:06:18.007Z,100.00
2023-05-06T09:07:18.009Z,100.00
2023-05-06T09:08:18.015Z,100.00
2023-05-06T09:09:18.023Z,100.00
2023-05-06T09:10:17.997Z,100.00
2023-05-06T09:11:18.008Z,100.00
2023-05-06T09:12:18.001Z,100.00
2023-05-06T09:13:18.093Z,100.00
2023-05-06T09:14:18.032Z,100.00
2023-05-06T09:15:18.013Z,100.00
2023-05-06T09:16:18.077Z,100.00
2023-05-06T09:17:18.017Z,100.00
2023-05-06T09:18:18.028Z,100.00
2023-05-06T09:19:18.040Z,100.00
2023-05-06T09:20:18.038Z,100.00
2023-05-06T09:21:18.014Z,100.00
2023-05-06T09:22:18.037Z,100.00
2023-05-06T09:23:18.058Z,100.00
2023-05-06T09:24:18.024Z,100.00
2023-05-06T09:25:18.017Z,100.00
2023-05-06T09:26:18.037Z,100.00
2023-05-06T09:27:18.028Z,100.00
2023-05-06T09:28:18.028Z,100.00
2023-05-06T09:29:18.063Z,100.00
2023-05-06T09:30:18.074Z,100.00
2023-05-06T09:31:18.126Z,100.00
2023-05-06T09:32:18.018Z,100.00
2023-05-06T09:33:18.047Z,100.00
2023-05-06T09:34:18.103Z,100.00
2023-05-06T09:35:18.087Z,100.00
2023-05-06T09:36:18.041Z,98.54
2023-05-06T09:37:18.037Z,97.64
2023-05-06T09:38:18.024Z,83.51
2023-05-06T09:39:18.041Z,91.23
2023-05-06T09:40:18.129Z,80.80
2023-05-06T09:41:18.067Z,84.41
2023-05-06T09:42:18.076Z,82.46
2023-05-06T09:43:18.046Z,75.45
2023-05-06T09:44:18.077Z,75.61
2023-05-06T09:45:18.070Z,74.53
2023-05-06T09:46:18.151Z,70.73
2023-05-06T09:47:18.092Z,73.14
2023-05-06T09:48:18.075Z,73.87
2023-05-06T09:49:18.076Z,71.87
2023-05-06T09:50:18.104Z,74.00
2023-05-06T09:51:18.099Z,75.26
2023-05-06T09:52:18.073Z,71.31
2023-05-06T09:53:18.075Z,73.02
2023-05-06T09:54:18.070Z,73.56
2023-05-06T09:55:18.071Z,74.01
2023-05-06T09:56:18.117Z,66.72
2023-05-06T09:57:18.086Z,65.53
2023-05-06T09:58:18.084Z,65.53
2023-05-06T09:59:18.093Z,73.40
2023-05-06T10:00:18.116Z,74.63
2023-05-06T10:01:32.477Z,80.85
2023-05-06T10:02:18.194Z,82.95
2023-05-06T10:03:18.236Z,84.97
2023-05-06T10:04:18.236Z,86.12
2023-05-06T10:05:18.646Z,84.70
2023-05-06T10:06:18.118Z,77.04
2023-05-06T10:07:18.107Z,74.56
2023-05-06T10:08:18.104Z,78.37
2023-05-06T10:09:18.096Z,76.77
2023-05-06T10:10:18.116Z,80.40
2023-05-06T10:11:18.098Z,85.91
2023-05-06T10:12:18.116Z,84.11
2023-05-06T10:13:18.156Z,78.64
2023-05-06T10:14:18.113Z,75.61
2023-05-06T10:15:18.122Z,73.17
2023-05-06T10:16:18.206Z,71.06
2023-05-06T10:17:18.109Z,71.57
2023-05-06T10:18:18.125Z,76.62
2023-05-06T10:19:18.129Z,73.35
2023-05-06T10:20:18.136Z,79.67
2023-05-06T10:21:18.120Z,82.28
2023-05-06T10:22:18.115Z,89.00
2023-05-06T10:23:18.125Z,91.23
2023-05-06T10:24:18.138Z,91.40
2023-05-06T10:25:18.131Z,88.98
2023-05-06T10:26:18.158Z,87.19
2023-05-06T10:27:18.117Z,92.95
2023-05-06T10:28:30.664Z,93.43
2023-05-06T10:29:18.146Z,97.52
2023-05-06T10:30:18.155Z,95.41
2023-05-06T10:31:18.115Z,89.38
2023-05-06T10:32:18.136Z,89.31
2023-05-06T10:33:18.173Z,93.03
2023-05-06T10:34:18.125Z,100.00
2023-05-06T10:35:18.153Z,100.00
2023-05-06T10:36:18.133Z,93.63
2023-05-06T10:37:18.137Z,86.05
2023-05-06T10:38:18.133Z,84.59
2023-05-06T10:39:18.149Z,84.70
2023-05-06T10:40:18.248Z,82.52
2023-05-06T10:41:18.194Z,80.35
2023-05-06T10:42:18.150Z,82.62
2023-05-06T10:43:18.129Z,86.54
2023-05-06T10:44:18.152Z,90.07
2023-05-06T10:45:18.167Z,94.72
2023-05-06T10:46:18.136Z,100.00
2023-05-06T10:47:18.142Z,100.00
2023-05-06T10:48:18.150Z,100.00
2023-05-06T10:49:18.171Z,100.00
2023-05-06T10:50:18.169Z,100.00
2023-05-06T10:51:18.146Z,100.00
2023-05-06T10:52:18.179Z,99.68
2023-05-06T10:53:18.150Z,100.00
2023-05-06T10:54:18.193Z,100.00
2023-05-06T10:55:18.181Z,100.00
2023-05-06T10:56:18.147Z,100.00
2023-05-06T10:57:18.172Z,98.00
2023-05-06T10:58:18.164Z,88.75
2023-05-06T10:59:18.164Z,90.00
2023-05-06T11:00:18.188Z,91.17
2023-05-06T11:01:18.185Z,92.14
2023-05-06T11:02:18.209Z,91.40
2023-05-06T11:03:18.207Z,95.89
2023-05-06T11:04:18.206Z,100.00
2023-05-06T11:05:18.165Z,97.87
2023-05-06T11:06:18.178Z,98.30
2023-05-06T11:07:18.215Z,99.25
2023-05-06T11:08:18.194Z,100.00
2023-05-06T11:09:18.196Z,100.00
2023-05-06T11:10:18.191Z,100.00
2023-05-06T11:11:18.183Z,100.00
2023-05-06T11:12:18.240Z,100.00
2023-05-06T11:13:18.248Z,96.75
2023-05-06T11:14:18.201Z,95.20
2023-05-06T11:15:18.176Z,90.93
2023-05-06T11:16:18.215Z,91.75
2023-05-06T11:17:18.207Z,94.41
2023-05-06T11:18:18.192Z,96.17
2023-05-06T11:19:18.192Z,98.30
2023-05-06T11:20:18.200Z,92.87
2023-05-06T11:21:18.213Z,88.25
2023-05-06T11:22:18.246Z,85.06
2023-05-06T11:23:18.191Z,84.45
2023-05-06T11:24:18.206Z,77.48
2023-05-06T11:25:18.212Z,80.61
2023-05-06T11:26:18.213Z,90.06
2023-05-06T11:27:18.217Z,93.25
2023-05-06T11:28:18.226Z,90.85
2023-05-06T11:29:18.195Z,87.64
2023-05-06T11:30:18.220Z,82.72
2023-05-06T11:31:18.260Z,73.55
2023-05-06T11:32:18.234Z,73.34
2023-05-06T11:33:18.226Z,70.68
2023-05-06T11:34:18.235Z,64.19
2023-05-06T11:35:18.217Z,60.70
2023-05-06T11:36:18.221Z,58.39
2023-05-06T11:37:18.257Z,54.62
2023-05-06T11:38:18.237Z,54.29
2023-05-06T11:39:18.235Z,52.86
2023-05-06T11:40:18.228Z,52.97
2023-05-06T11:41:18.243Z,53.09
2023-05-06T11:42:18.236Z,51.05
2023-05-06T11:43:18.247Z,50.56
2023-05-06T11:44:18.254Z,49.96
2023-05-06T11:45:18.235Z,50.91
2023-05-06T11:46:18.310Z,49.16
2023-05-06T11:47:18.235Z,49.41
2023-05-06T11:48:18.246Z,49.59
2023-05-06T11:49:18.248Z,49.25
2023-05-06T11:50:18.240Z,48.76
2023-05-06T11:51:18.254Z,50.16
2023-05-06T11:52:18.246Z,51.49
2023-05-06T11:53:18.254Z,52.72
2023-05-06T11:54:18.238Z,51.65
2023-05-06T11:55:18.248Z,52.99
2023-05-06T11:56:18.266Z,54.01
2023-05-06T11:57:18.251Z,55.40
2023-05-06T11:58:18.263Z,59.43
2023-05-06T11:59:18.265Z,60.91
2023-05-06T12:00:18.262Z,61.20
2023-05-06T12:01:18.276Z,61.80
2023-05-06T12:02:18.306Z,62.91
2023-05-06T12:03:18.371Z,62.91
2023-05-06T12:04:18.286Z,61.85
2023-05-06T12:05:18.282Z,60.93
2023-05-06T12:06:18.285Z,60.22
2023-05-06T12:07:18.283Z,60.11
2023-05-06T12:08:26.738Z,61.39
2023-05-06T12:09:18.293Z,62.59
2023-05-06T12:10:18.279Z,60.68
2023-05-06T12:11:18.285Z,53.66
2023-05-06T12:12:18.283Z,51.32
2023-05-06T12:13:18.435Z,48.21
2023-05-06T12:14:18.292Z,50.70
2023-05-06T12:15:18.262Z,50.93
2023-05-06T12:16:18.398Z,51.09
2023-05-06T12:17:18.282Z,48.85
2023-05-06T12:18:18.276Z,46.33
2023-05-06T12:19:18.276Z,46.86
2023-05-06T12:20:18.293Z,46.80
2023-05-06T12:21:18.303Z,48.09
2023-05-06T12:22:18.290Z,46.30
2023-05-06T12:23:18.321Z,46.01
2023-05-06T12:24:18.338Z,46.63
2023-05-06T12:25:18.297Z,46.77
2023-05-06T12:26:18.308Z,49.03
2023-05-06T12:27:18.318Z,49.83
2023-05-06T12:28:18.307Z,49.71
2023-05-06T12:29:18.303Z,49.96
2023-05-06T12:30:18.304Z,51.98
2023-05-06T12:31:18.458Z,50.13
2023-05-06T12:32:18.322Z,47.83
2023-05-06T12:33:18.301Z,47.35
2023-05-06T12:34:18.304Z,47.59